Time;durP1;ratioP1;P1;durP2;ratioP2;P2;SDS_P1;SDS_P2;PMS_P1;PMS_P2;Temp;Humidity;BMP_temperature;BMP_pressure;BME280_temperature;BME280_humidity;BME280_pressure;Samples;Min_cycle;Max_cycle;Signal;HPM_P1;HPM_P2
2023/11/14 00:01:09;;;;;;;60.87;54.57;;;10.90;88.50;;;;;;5016545;28;20259;-90
2023/11/14 00:03:34;;;;;;;68.13;62.07;;;11.00;88.10;;;;;;5016508;28;20173;-91
2023/11/14 00:06:01;;;;;;;43.73;32.33;;;10.90;88.50;;;;;;5016422;28;20193;-90
2023/11/14 00:08:27;;;;;;;41.17;34.00;;;11.00;88.00;;;;;;5016833;28;20268;-89
2023/11/14 00:10:53;;;;;;;61.17;55.23;;;11.00;87.90;;;;;;5016522;28;20200;-90
2023/11/14 00:13:18;;;;;;;59.27;53.90;;;11.00;88.20;;;;;;5016229;28;20177;-89
2023/11/14 00:15:44;;;;;;;67.70;61.80;;;11.10;87.40;;;;;;5034037;28;20215;-89
2023/11/14 00:18:09;;;;;;;37.43;32.83;;;11.10;87.70;;;;;;5033801;28;20172;-89
2023/11/14 00:20:35;;;;;;;51.83;35.57;;;11.10;87.70;;;;;;5016022;28;20552;-89
2023/11/14 00:23:01;;;;;;;42.67;32.60;;;11.10;87.80;;;;;;5033695;28;20266;-89
2023/11/14 00:25:29;;;;;;;38.33;33.13;;;11.10;87.50;;;;;;5015610;28;20239;-90
2023/11/14 00:27:55;;;;;;;36.30;31.93;;;11.20;87.30;;;;;;5015865;28;20323;-89
2023/11/14 00:30:20;;;;;;;34.27;30.90;;;11.20;87.20;;;;;;5016024;28;20684;-90
2023/11/14 00:32:46;;;;;;;48.00;34.00;;;11.20;87.10;;;;;;5016470;28;20207;-90
2023/11/14 00:35:12;;;;;;;46.93;33.80;;;11.20;87.20;;;;;;5033409;28;20580;-90
2023/11/14 00:37:38;;;;;;;42.60;33.13;;;11.10;87.40;;;;;;5033371;28;20275;-88
2023/11/14 00:40:04;;;;;;;34.83;30.43;;;11.10;87.60;;;;;;5016092;28;20212;-90
2023/11/14 00:42:33;;;;;;;36.70;32.07;;;11.10;88.30;;;;;;5015659;28;20275;-89
2023/11/14 00:44:58;;;;;;;42.90;34.40;;;11.00;88.60;;;;;;5015600;28;20204;-89
2023/11/14 00:47:24;;;;;;;32.43;29.37;;;10.90;88.70;;;;;;5015638;28;20255;-88
2023/11/14 00:49:49;;;;;;;37.97;33.53;;;11.00;88.10;;;;;;5015668;28;20179;-87
2023/11/14 00:52:16;;;;;;;37.40;33.33;;;11.00;88.20;;;;;;5015550;28;20184;-88
2023/11/14 00:54:41;;;;;;;33.20;29.97;;;11.00;88.20;;;;;;5015538;28;20204;-89
2023/11/14 00:57:07;;;;;;;43.50;32.33;;;11.10;88.10;;;;;;5015542;28;20691;-88
2023/11/14 00:59:32;;;;;;;51.80;34.03;;;11.00;88.50;;;;;;5015629;28;20555;-90
2023/11/14 01:01:59;;;;;;;37.00;31.77;;;10.90;88.60;;;;;;5015465;28;20647;-89
2023/11/14 01:04:25;;;;;;;42.43;33.70;;;11.10;88.00;;;;;;5020249;28;20200;-90
2023/11/14 01:06:51;;;;;;;39.53;31.40;;;11.00;88.10;;;;;;5021880;28;20193;-88
2023/11/14 01:09:16;;;;;;;36.70;31.00;;;11.10;88.10;;;;;;5021957;28;20636;-90
2023/11/14 01:11:42;;;;;;;45.73;31.30;;;11.10;87.70;;;;;;5022086;28;20180;-90
2023/11/14 01:14:08;;;;;;;35.23;29.70;;;11.20;87.20;;;;;;5021810;28;20176;-89
2023/11/14 01:16:34;;;;;;;55.93;50.07;;;11.20;86.80;;;;;;5039594;28;20197;-90
2023/11/14 01:19:01;;;;;;;58.73;53.10;;;11.20;86.80;;;;;;5022074;28;20591;-90
2023/11/14 01:21:28;;;;;;;61.33;54.77;;;11.10;87.40;;;;;;5022078;28;20206;-90
2023/11/14 01:23:54;;;;;;;62.97;56.73;;;11.10;87.80;;;;;;5021920;28;20172;-87
2023/11/14 01:26:19;;;;;;;62.83;56.17;;;11.10;88.30;;;;;;5021724;28;20208;-90
2023/11/14 01:28:46;;;;;;;;;;;11.00;88.30;;;;;;5040451;28;20172;-91
2023/11/14 01:31:20;;;;;;;60.23;55.07;;;10.90;89.10;;;;;;5022215;28;20532;-90
2023/11/14 01:33:46;;;;;;;59.17;53.90;;;10.80;89.80;;;;;;5021810;28;20176;-88
2023/11/14 01:36:11;;;;;;;59.63;54.23;;;10.80;89.90;;;;;;5039341;28;20211;-90
2023/11/14 01:38:37;;;;;;;71.90;57.63;;;10.80;89.80;;;;;;5021979;28;20203;-90
2023/11/14 01:41:02;;;;;;;63.53;57.90;;;10.80;90.10;;;;;;5039378;28;20168;-91
2023/11/14 01:43:28;;;;;;;63.63;57.53;;;10.60;90.80;;;;;;5021733;28;20172;-91
2023/11/14 01:45:55;;;;;;;67.93;60.80;;;10.50;91.50;;;;;;5021659;28;20204;-90
2023/11/14 01:48:21;;;;;;;71.93;64.27;;;10.50;91.50;;;;;;5021743;28;20176;-90
2023/11/14 01:50:47;;;;;;;45.43;34.63;;;10.60;91.40;;;;;;5021638;28;20183;-89
2023/11/14 01:53:14;;;;;;;48.27;33.93;;;10.60;90.90;;;;;;5039353;28;20184;-89
2023/11/14 01:55:40;;;;;;;59.23;52.80;;;10.70;90.40;;;;;;5021595;28;20197;-90
2023/11/14 01:58:06;;;;;;;63.27;56.77;;;10.70;91.00;;;;;;5039226;28;20239;-88
2023/11/14 02:00:32;;;;;;;68.10;61.63;;;10.60;91.20;;;;;;5039465;28;20171;-90
2023/11/14 02:02:59;;;;;;;40.00;34.03;;;10.70;91.00;;;;;;5039169;28;20176;-90
2023/11/14 02:05:26;;;;;;;41.63;36.47;;;10.70;90.70;;;;;;5021375;28;20231;-92
2023/11/14 02:07:52;;;;;;;63.97;57.57;;;10.70;90.70;;;;;;5021339;28;20223;-90
2023/11/14 02:10:18;;;;;;;66.00;60.07;;;10.70;90.40;;;;;;5021640;28;20250;-90
2023/11/14 02:12:44;;;;;;;58.63;51.23;;;10.70;90.50;;;;;;5039981;28;20644;-90
2023/11/14 02:15:11;;;;;;;39.77;35.63;;;10.70;90.90;;;;;;5038230;28;20640;-90
2023/11/14 02:17:36;;;;;;;48.87;36.50;;;10.60;91.30;;;;;;5018325;28;20711;-90
2023/11/14 02:20:02;;;;;;;43.63;38.50;;;10.50;91.90;;;;;;5018304;28;20177;-90
2023/11/14 02:22:28;;;;;;;50.40;37.73;;;10.50;92.20;;;;;;5018306;28;20173;-91
2023/11/14 02:24:57;;;;;;;40.37;36.23;;;10.40;92.60;;;;;;5018370;28;20208;-90
2023/11/14 02:27:23;;;;;;;41.10;36.73;;;10.50;92.80;;;;;;5018234;28;20195;-91
2023/11/14 02:29:55;;;;;;;47.80;38.53;;;10.40;92.80;;;;;;5018174;28;20260;-91
2023/11/14 02:32:21;;;;;;;46.07;38.33;;;10.40;92.70;;;;;;5018203;28;20177;-90
2023/11/14 02:34:47;;;;;;;46.50;40.30;;;10.40;92.80;;;;;;5018511;28;20698;-89
2023/11/14 02:37:12;;;;;;;53.93;39.03;;;10.30;93.00;;;;;;5035715;28;20201;-90
2023/11/14 02:39:38;;;;;;;50.90;37.57;;;10.30;93.00;;;;;;5017944;28;20287;-90
2023/11/14 02:42:04;;;;;;;47.63;35.77;;;10.50;91.90;;;;;;5017983;28;20616;-90
2023/11/14 02:44:30;;;;;;;48.50;35.60;;;10.70;90.90;;;;;;5017682;28;20211;-90
2023/11/14 02:46:56;;;;;;;40.93;34.03;;;10.90;89.50;;;;;;5017742;28;20278;-90
2023/11/14 02:49:37;;;;;;;36.30;32.60;;;10.90;89.10;;;;;;5035619;28;20165;-90
2023/11/14 02:52:03;;;;;;;41.77;37.13;;;11.10;88.20;;;;;;5017707;28;20175;-89
2023/11/14 02:54:29;;;;;;;41.43;33.77;;;11.00;88.30;;;;;;5017641;28;20181;-91
2023/11/14 02:56:54;;;;;;;41.80;33.47;;;11.20;87.10;;;;;;5017574;28;20203;-90
2023/11/14 02:59:21;;;;;;;45.57;31.77;;;11.10;87.80;;;;;;5017636;28;20188;-89
2023/11/14 03:01:46;;;;;;;51.67;33.40;;;11.10;87.30;;;;;;5017997;28;20183;-90
2023/11/14 03:04:12;;;;;;;37.47;31.70;;;11.20;86.50;;;;;;5017532;28;20204;-89
2023/11/14 03:06:40;;;;;;;32.53;29.10;;;11.20;86.50;;;;;;5017434;28;20193;-90
2023/11/14 03:09:06;;;;;;;46.77;33.63;;;11.20;86.60;;;;;;5017349;28;20177;-89
2023/11/14 03:11:32;;;;;;;41.17;34.67;;;11.10;87.00;;;;;;5017356;28;20669;-90
2023/11/14 03:13:57;;;;;;;55.93;51.00;;;11.10;87.20;;;;;;5017391;28;20168;-90
2023/11/14 03:16:23;;;;;;;56.63;51.40;;;11.20;86.60;;;;;;5017196;28;20680;-89
2023/11/14 03:18:48;;;;;;;57.83;53.10;;;11.10;86.70;;;;;;5017213;28;20644;-90
2023/11/14 03:21:17;;;;;;;58.80;53.70;;;11.10;87.00;;;;;;5017181;28;20035;-90
2023/11/14 03:23:43;;;;;;;60.47;55.17;;;11.10;87.00;;;;;;5016966;28;20177;-89
2023/11/14 03:26:09;;;;;;;58.00;53.20;;;11.00;87.50;;;;;;5016850;28;20710;-90
2023/11/14 03:28:34;;;;;;;55.77;51.23;;;11.00;87.70;;;;;;5034636;28;20226;-89
2023/11/14 03:31:00;;;;;;;57.20;51.80;;;11.00;87.70;;;;;;5016953;28;20675;-90
2023/11/14 03:33:26;;;;;;;55.87;51.53;;;11.00;87.80;;;;;;5016900;28;20208;-89
2023/11/14 03:35:51;;;;;;;56.03;51.13;;;11.00;87.70;;;;;;5016800;28;20228;-91
2023/11/14 03:38:17;;;;;;;55.43;50.70;;;11.00;87.90;;;;;;5016781;28;20181;-89
2023/11/14 03:40:42;;;;;;;58.20;53.33;;;11.00;88.10;;;;;;5016733;28;20188;-90
2023/11/14 03:43:08;;;;;;;56.37;52.17;;;10.90;88.20;;;;;;5016834;28;20610;-89
2023/11/14 03:45:34;;;;;;;58.20;52.33;;;10.90;88.10;;;;;;5016540;28;20257;-90
2023/11/14 03:47:59;;;;;;;58.17;53.10;;;10.90;88.50;;;;;;5017177;28;20210;-89
2023/11/14 03:50:25;;;;;;;62.43;56.93;;;11.00;88.10;;;;;;5016750;28;20181;-90
2023/11/14 03:52:50;;;;;;;39.03;34.90;;;11.10;87.70;;;;;;5016657;28;20632;-90
2023/11/14 03:55:17;;;;;;;34.67;31.20;;;11.00;88.20;;;;;;5016571;28;20184;-90
2023/11/14 03:57:43;;;;;;;58.73;53.43;;;10.90;88.80;;;;;;5034085;28;20192;-90
2023/11/14 04:00:09;;;;;;;64.23;59.03;;;10.80;89.30;;;;;;5016298;28;20187;-90
2023/11/14 04:02:37;;;;;;;38.47;32.10;;;10.80;89.70;;;;;;5016823;28;20211;-90
2023/11/14 04:05:04;;;;;;;37.13;32.33;;;10.80;89.60;;;;;;5033935;28;20254;-91
2023/11/14 04:07:30;;;;;;;34.57;31.60;;;10.80;89.70;;;;;;5034098;28;20195;-89
2023/11/14 04:09:56;;;;;;;36.07;32.37;;;10.80;89.90;;;;;;5016299;28;20267;-91
2023/11/14 04:12:22;;;;;;;44.80;32.30;;;10.70;90.10;;;;;;5034203;28;20648;-90
2023/11/14 04:14:48;;;;;;;38.83;34.90;;;10.80;89.90;;;;;;5017059;28;20227;-91
2023/11/14 04:17:14;;;;;;;40.03;34.67;;;10.80;90.30;;;;;;5016296;28;20611;-90
2023/11/14 04:19:39;;;;;;;37.23;32.83;;;10.70;90.80;;;;;;5016544;28;20177;-91
2023/11/14 04:22:05;;;;;;;41.67;34.43;;;10.70;90.90;;;;;;5016293;28;20223;-90
2023/11/14 04:24:31;;;;;;;38.73;34.50;;;10.60;91.20;;;;;;5015870;28;20201;-91
2023/11/14 04:26:59;;;;;;;40.77;35.03;;;10.60;91.20;;;;;;5016090;28;20249;-88
2023/11/14 04:29:24;;;;;;;37.03;33.17;;;10.60;91.60;;;;;;5016048;28;20172;-89
2023/11/14 04:31:50;;;;;;;37.17;33.67;;;10.60;91.60;;;;;;5016098;28;20175;-90
2023/11/14 04:34:16;;;;;;;38.80;34.87;;;10.60;91.60;;;;;;5015934;28;20262;-91
2023/11/14 04:36:41;;;;;;;36.97;32.33;;;10.50;92.00;;;;;;5016014;28;20732;-92
2023/11/14 04:39:08;;;;;;;37.63;33.57;;;10.50;92.50;;;;;;5015478;28;20190;-91
2023/11/14 04:41:34;;;;;;;42.03;35.40;;;10.40;92.60;;;;;;5015814;28;20589;-91
2023/11/14 04:44:00;;;;;;;35.27;31.57;;;10.60;91.80;;;;;;5015671;28;20183;-91
2023/11/14 04:46:26;;;;;;;36.57;33.07;;;10.60;92.00;;;;;;5033625;28;20570;-89
2023/11/14 04:48:51;;;;;;;36.37;32.90;;;10.50;92.00;;;;;;5033382;28;20165;-91
2023/11/14 04:51:17;;;;;;;34.87;31.27;;;10.60;92.00;;;;;;5017987;28;20695;-90
2023/11/14 04:53:42;;;;;;;36.80;31.20;;;10.60;91.50;;;;;;5015756;28;20173;-91
2023/11/14 04:56:08;;;;;;;38.50;34.77;;;10.60;91.70;;;;;;5015522;28;20314;-90
2023/11/14 04:58:33;;;;;;;38.93;35.30;;;10.60;91.50;;;;;;5015494;28;20188;-91
2023/11/14 05:01:00;;;;;;;40.20;36.43;;;10.60;91.70;;;;;;5016403;28;20191;-91
2023/11/14 05:03:25;;;;;;;53.30;48.90;;;10.50;92.30;;;;;;5015435;28;20176;-91
2023/11/14 05:05:51;;;;;;;55.93;50.97;;;10.50;92.50;;;;;;5015444;28;20215;-91
2023/11/14 05:08:16;;;;;;;48.90;44.37;;;10.40;93.20;;;;;;5015555;28;20184;-91
2023/11/14 05:10:42;;;;;;;50.63;45.07;;;10.30;93.30;;;;;;5015983;28;20200;-91
2023/11/14 05:13:08;;;;;;;49.80;45.00;;;10.30;93.40;;;;;;5015364;28;20179;-91
2023/11/14 05:15:33;;;;;;;50.47;45.80;;;10.30;93.70;;;;;;5015415;28;20540;-91
2023/11/14 05:17:59;;;;;;;52.93;47.53;;;10.30;93.70;;;;;;5032956;28;20615;-91
2023/11/14 05:20:24;;;;;;;49.07;44.13;;;10.40;93.30;;;;;;5015311;28;20177;-89
2023/11/14 05:22:50;;;;;;;54.27;48.87;;;10.30;93.40;;;;;;5015427;28;20271;-90
2023/11/14 05:25:15;;;;;;;57.10;52.20;;;10.30;93.40;;;;;;5033061;28;20215;-90
2023/11/14 05:27:41;;;;;;;59.90;53.93;;;10.40;93.00;;;;;;5015286;28;20236;-90
2023/11/14 05:30:12;;;;;;;59.40;54.60;;;10.40;92.60;;;;;;5015404;28;20533;-89
2023/11/14 05:32:38;;;;;;;59.53;54.73;;;10.60;91.50;;;;;;5015482;28;20180;-91
2023/11/14 05:35:04;;;;;;;59.73;53.80;;;10.50;91.60;;;;;;5015382;28;20173;-90
2023/11/14 05:37:29;;;;;;;56.70;52.57;;;10.60;91.20;;;;;;5015180;28;20197;-90
2023/11/14 05:39:55;;;;;;;32.93;30.30;;;10.70;90.30;;;;;;5015255;28;20177;-90
2023/11/14 05:42:21;;;;;;;38.27;34.93;;;10.70;90.40;;;;;;5033072;28;20185;-90
2023/11/14 05:44:48;;;;;;;34.53;32.07;;;10.70;90.20;;;;;;5032800;28;20574;-90
2023/11/14 05:47:14;;;;;;;55.93;51.90;;;10.70;90.10;;;;;;5032789;28;20197;-90
2023/11/14 05:49:40;;;;;;;59.13;54.80;;;10.70;89.60;;;;;;5016446;28;20173;-90
2023/11/14 05:52:06;;;;;;;34.60;31.37;;;10.70;89.60;;;;;;5018841;28;20196;-90
2023/11/14 05:54:31;;;;;;;33.70;31.20;;;10.60;89.80;;;;;;5019037;28;20550;-91
2023/11/14 05:56:58;;;;;;;46.87;43.40;;;10.60;90.10;;;;;;5018689;28;20283;-90
2023/11/14 05:59:24;;;;;;;54.50;51.00;;;10.60;90.50;;;;;;5018684;28;20184;-90
2023/11/14 06:01:50;;;;;;;57.77;53.93;;;10.60;90.20;;;;;;5036448;28;20169;-90
2023/11/14 06:04:29;;;;;;;33.03;30.00;;;10.70;89.20;;;;;;5111298;27;20557;-90
2023/11/14 06:06:54;;;;;;;34.13;30.70;;;10.70;89.40;;;;;;5109814;28;20202;-90
2023/11/14 06:09:20;;;;;;;35.17;31.73;;;10.70;89.60;;;;;;5110472;28;20166;-91
2023/11/14 06:11:48;;;;;;;33.33;30.37;;;10.60;90.20;;;;;;5109898;28;20166;-91
2023/11/14 06:14:13;;;;;;;33.77;30.80;;;10.60;90.30;;;;;;5111118;28;20249;-90
2023/11/14 06:16:39;;;;;;;32.73;30.03;;;10.50;90.60;;;;;;5110874;28;20226;-90
2023/11/14 06:19:05;;;;;;;28.90;26.70;;;10.40;91.00;;;;;;5111105;28;20170;-90
2023/11/14 06:21:30;;;;;;;31.73;29.20;;;10.40;91.10;;;;;;5109597;28;20177;-90
2023/11/14 06:23:56;;;;;;;31.97;29.00;;;10.40;91.10;;;;;;5111179;28;20209;-90
2023/11/14 06:26:21;;;;;;;34.43;31.47;;;10.40;91.40;;;;;;5109467;28;20673;-90
2023/11/14 06:28:47;;;;;;;34.57;30.87;;;10.40;91.60;;;;;;5109602;28;20174;-90
2023/11/14 06:31:13;;;;;;;34.87;31.37;;;10.30;91.90;;;;;;5109463;28;20528;-89
2023/11/14 06:33:38;;;;;;;33.33;29.93;;;10.30;92.10;;;;;;5109970;28;20761;-90
2023/11/14 06:36:04;;;;;;;33.53;30.47;;;10.30;92.20;;;;;;5110536;28;20190;-90
2023/11/14 06:38:30;;;;;;;34.20;30.83;;;10.40;91.70;;;;;;5109680;28;20229;-90
2023/11/14 06:40:55;;;;;;;34.57;30.60;;;10.50;91.40;;;;;;5109350;28;20182;-90
2023/11/14 06:43:21;;;;;;;38.63;32.00;;;10.50;91.60;;;;;;5109236;28;20209;-90
2023/11/14 06:45:46;;;;;;;32.97;29.57;;;10.40;92.00;;;;;;5109048;28;20204;-91
2023/11/14 06:48:12;;;;;;;33.83;30.63;;;10.30;92.40;;;;;;5109235;28;20185;-90
2023/11/14 06:50:39;;;;;;;32.17;29.13;;;10.30;92.60;;;;;;5109273;28;20642;-90
2023/11/14 06:53:07;;;;;;;33.83;31.20;;;10.40;91.90;;;;;;5109078;28;20303;-90
2023/11/14 06:55:33;;;;;;;36.60;33.43;;;10.40;91.90;;;;;;5108909;28;20208;-90
2023/11/14 06:57:58;;;;;;;35.27;31.60;;;10.50;91.90;;;;;;5109004;28;20248;-87
2023/11/14 07:00:24;;;;;;;38.13;34.57;;;10.50;92.00;;;;;;5109000;28;20178;-89
2023/11/14 07:02:50;;;;;;;55.83;51.30;;;10.50;92.10;;;;;;5109959;28;20202;-89
2023/11/14 07:05:16;;;;;;;60.20;55.30;;;10.50;92.00;;;;;;5108850;28;20189;-91
2023/11/14 07:07:44;;;;;;;58.53;53.63;;;10.50;92.00;;;;;;5109998;28;20201;-91
2023/11/14 07:10:10;;;;;;;64.70;57.97;;;10.50;92.10;;;;;;5110318;28;20173;-89
2023/11/14 07:12:36;;;;;;;58.07;53.37;;;10.50;92.20;;;;;;5109742;28;20182;-91
2023/11/14 07:15:04;;;;;;;61.87;56.83;;;10.50;92.60;;;;;;5101222;28;20171;-91
2023/11/14 07:17:30;;;;;;;60.27;54.53;;;10.40;92.70;;;;;;5094919;28;20769;-90
2023/11/14 07:19:57;;;;;;;62.73;57.83;;;10.50;92.80;;;;;;5095536;28;20213;-91
2023/11/14 07:22:22;;;;;;;62.93;56.77;;;10.40;93.00;;;;;;5094980;28;20203;-91
2023/11/14 07:24:48;;;;;;;62.10;55.67;;;10.50;93.00;;;;;;5095043;28;20716;-90
2023/11/14 07:27:15;;;;;;;59.00;53.57;;;10.40;93.10;;;;;;5095195;28;20681;-92
2023/11/14 07:29:41;;;;;;;62.00;55.93;;;10.40;93.40;;;;;;5095127;28;20178;-92
2023/11/14 07:32:08;;;;;;;63.87;57.70;;;10.40;93.50;;;;;;5095017;28;20167;-91
2023/11/14 07:34:33;;;;;;;60.37;55.93;;;10.30;93.40;;;;;;5094920;28;20171;-90
2023/11/14 07:36:59;;;;;;;58.87;53.63;;;10.50;92.90;;;;;;5094530;28;20198;-90
2023/11/14 07:39:25;;;;;;;38.37;34.37;;;10.50;92.70;;;;;;5095380;28;20175;-89
2023/11/14 07:41:53;;;;;;;38.33;33.83;;;10.50;92.80;;;;;;5095816;28;20182;-90
2023/11/14 07:44:18;;;;;;;60.87;55.30;;;10.50;92.60;;;;;;5095759;28;20674;-90
2023/11/14 07:46:45;;;;;;;58.30;53.53;;;10.50;92.70;;;;;;5095353;28;20293;-92
2023/11/14 07:49:11;;;;;;;62.73;57.13;;;10.60;92.30;;;;;;5096737;28;20202;-91
2023/11/14 07:51:36;;;;;;;49.57;40.07;;;10.60;92.10;;;;;;5095589;28;20171;-91
2023/11/14 07:54:02;;;;;;;40.17;36.23;;;10.70;91.30;;;;;;5095338;28;20668;-90
2023/11/14 07:56:28;;;;;;;62.90;57.30;;;10.70;91.00;;;;;;5095456;28;20267;-90
2023/11/14 07:58:54;;;;;;;62.27;57.17;;;10.80;90.20;;;;;;5094458;28;20175;-90
2023/11/14 08:01:19;;;;;;;68.43;63.00;;;10.80;90.30;;;;;;5095964;28;20177;-92
2023/11/14 08:03:45;;;;;;;42.70;38.40;;;10.70;90.40;;;;;;5095022;28;20300;-91
2023/11/14 08:06:11;;;;;;;38.97;35.27;;;10.80;90.40;;;;;;5094768;28;20225;-91
2023/11/14 08:08:37;;;;;;;42.43;36.53;;;10.70;91.00;;;;;;5094772;28;20167;-91
2023/11/14 08:11:03;;;;;;;41.03;37.00;;;10.70;91.50;;;;;;5094303;28;20638;-92
2023/11/14 08:13:28;;;;;;;39.30;34.30;;;10.70;91.20;;;;;;5094014;28;20180;-91
2023/11/14 08:15:54;;;;;;;38.23;34.90;;;10.80;91.00;;;;;;5094278;28;20578;-90
2023/11/14 08:18:20;;;;;;;41.03;36.90;;;10.80;91.20;;;;;;5094408;28;20550;-91
2023/11/14 08:20:45;;;;;;;40.87;36.47;;;10.80;91.00;;;;;;5096943;28;20182;-94
2023/11/14 08:23:12;;;;;;;61.63;38.37;;;10.80;90.60;;;;;;5103720;28;20208;-93
2023/11/14 08:25:38;;;;;;;47.57;40.37;;;10.80;90.70;;;;;;5107078;28;20198;-94
2023/11/14 08:28:04;;;;;;;42.47;37.13;;;10.90;90.30;;;;;;5106448;28;20175;-90
2023/11/14 08:30:30;;;;;;;42.33;38.27;;;10.80;90.40;;;;;;5104908;28;20170;-93
2023/11/14 08:32:56;;;;;;;42.20;36.17;;;10.90;90.00;;;;;;5108741;28;20177;-93
2023/11/14 08:35:25;;;;;;;38.10;34.77;;;10.90;90.10;;;;;;5106524;28;20257;-92
2023/11/14 08:37:53;;;;;;;41.37;36.93;;;11.00;89.70;;;;;;5102462;28;20171;-93
2023/11/14 08:40:19;;;;;;;41.53;37.77;;;11.00;89.60;;;;;;5100821;28;20178;-92
2023/11/14 08:42:48;;;;;;;39.87;35.83;;;11.10;89.50;;;;;;5101993;28;20198;-92
2023/11/14 08:45:14;;;;;;;41.97;37.50;;;11.10;89.50;;;;;;5102488;28;20173;-93
2023/11/14 08:47:40;;;;;;;53.63;37.83;;;11.20;89.00;;;;;;5101035;28;20191;-91
2023/11/14 08:50:06;;;;;;;40.00;36.13;;;11.20;88.90;;;;;;5097982;28;20202;-92
2023/11/14 08:52:34;;;;;;;50.00;35.37;;;11.30;88.40;;;;;;5098179;28;20579;-92
2023/11/14 08:55:01;;;;;;;39.73;34.20;;;11.30;87.90;;;;;;5098688;28;20602;-93
2023/11/14 08:57:28;;;;;;;37.97;33.93;;;11.30;88.10;;;;;;5099748;28;20206;-92
2023/11/14 08:59:55;;;;;;;36.87;33.40;;;11.30;88.20;;;;;;5097194;28;20178;-91
2023/11/14 09:02:21;;;;;;;43.17;39.13;;;11.30;88.10;;;;;;5099564;28;20211;-92
2023/11/14 09:04:46;;;;;;;62.87;56.60;;;11.30;88.30;;;;;;5100705;28;20261;-93
2023/11/14 09:07:12;;;;;;;61.60;56.50;;;11.30;88.50;;;;;;5104219;28;20194;-92
2023/11/14 09:09:39;;;;;;;66.63;60.93;;;11.10;89.30;;;;;;5105907;28;20161;-93
2023/11/14 09:12:05;;;;;;;61.00;55.23;;;11.00;89.40;;;;;;5104739;28;20249;-92
2023/11/14 09:14:31;;;;;;;59.67;53.77;;;11.10;89.20;;;;;;5101845;28;20535;-92
2023/11/14 09:16:57;;;;;;;61.57;56.27;;;11.20;88.80;;;;;;5099585;28;20194;-92
2023/11/14 09:19:23;;;;;;;56.00;51.37;;;11.20;88.50;;;;;;5099310;28;20183;-93
2023/11/14 09:21:48;;;;;;;57.57;53.10;;;11.20;88.30;;;;;;5100249;28;20182;-92
2023/11/14 09:24:14;;;;;;;60.43;55.73;;;11.20;88.20;;;;;;5100396;28;20206;-93
2023/11/14 09:26:40;;;;;;;57.03;52.23;;;11.30;88.30;;;;;;5100600;28;20214;-92
2023/11/14 09:29:06;;;;;;;56.03;51.63;;;11.20;88.80;;;;;;5097852;28;20170;-92
2023/11/14 09:31:32;;;;;;;58.80;53.47;;;11.30;88.20;;;;;;5096612;28;20178;-92
2023/11/14 09:33:57;;;;;;;57.40;52.23;;;11.30;88.20;;;;;;5098203;28;20182;-92
2023/11/14 09:36:23;;;;;;;58.80;53.33;;;11.40;88.00;;;;;;5098825;28;20198;-93
2023/11/14 09:38:48;;;;;;;40.73;36.93;;;11.30;88.00;;;;;;5098560;28;20186;-92
2023/11/14 09:41:14;;;;;;;44.33;33.40;;;11.40;87.60;;;;;;5098869;28;20316;-92
2023/11/14 09:43:40;;;;;;;38.43;34.27;;;11.40;87.50;;;;;;5097846;28;20201;-91
2023/11/14 09:46:07;;;;;;;59.00;54.23;;;11.40;87.40;;;;;;5099117;28;20221;-93
2023/11/14 09:48:36;;;;;;;61.57;56.30;;;11.40;87.70;;;;;;5097788;28;20707;-92
2023/11/14 09:51:04;;;;;;;34.33;30.83;;;11.40;87.50;;;;;;5098315;28;20178;-92
2023/11/14 09:53:32;;;;;;;36.20;32.37;;;11.50;87.50;;;;;;5096467;28;20570;-93
2023/11/14 09:55:58;;;;;;;44.57;39.83;;;11.50;87.50;;;;;;5095546;28;20705;-91
2023/11/14 09:58:24;;;;;;;55.27;50.40;;;11.60;87.20;;;;;;5097018;28;20231;-94
2023/11/14 10:00:50;;;;;;;60.90;55.30;;;11.50;87.70;;;;;;5098037;28;20649;-92
2023/11/14 10:03:17;;;;;;;34.07;30.57;;;11.60;87.30;;;;;;5096639;28;20206;-93
2023/11/14 10:05:43;;;;;;;35.63;31.80;;;11.60;87.30;;;;;;5099232;28;20190;-94
2023/11/14 10:08:13;;;;;;;36.37;32.70;;;11.70;87.00;;;;;;5094444;28;20189;-92
2023/11/14 10:10:40;;;;;;;36.87;32.90;;;11.70;87.60;;;;;;5096000;28;20250;-92
2023/11/14 10:13:20;;;;;;;40.23;36.23;;;11.60;87.90;;;;;;5093896;28;20214;-92
2023/11/14 10:15:46;;;;;;;47.03;33.40;;;11.60;88.00;;;;;;5093937;28;20609;-91
2023/11/14 10:18:12;;;;;;;38.70;31.13;;;11.80;87.10;;;;;;5093860;28;20235;-91
2023/11/14 10:20:38;;;;;;;43.60;32.97;;;11.80;86.90;;;;;;5094342;28;20179;-92
2023/11/14 10:25:41;;;;;;;31.90;28.43;;;11.90;86.70;;;;;;5047372;28;20242;-92
2023/11/14 10:28:06;;;;;;;33.50;30.47;;;11.90;86.40;;;;;;5035560;28;20172;-91
2023/11/14 10:30:45;;;;;;;38.17;34.03;;;11.90;86.50;;;;;;5036686;28;20267;-92
2023/11/14 10:33:15;;;;;;;36.27;33.00;;;11.90;87.10;;;;;;5050567;28;20207;-93
2023/11/14 10:35:42;;;;;;;40.53;33.13;;;12.20;87.10;;;;;;5051680;28;20252;-94
2023/11/14 10:38:21;;;;;;;34.87;30.47;;;12.20;87.10;;;;;;5052709;28;20191;-92
2023/11/14 10:40:56;;;;;;;36.13;32.37;;;12.20;86.70;;;;;;5053573;28;20219;-94
2023/11/14 10:43:37;;;;;;;39.23;32.27;;;12.10;86.50;;;;;;5052528;28;20239;-94
2023/11/14 10:46:10;;;;;;;34.17;30.90;;;12.00;85.90;;;;;;5038694;28;20196;-92
2023/11/14 10:48:37;;;;;;;34.57;29.43;;;12.20;86.40;;;;;;5054195;28;20189;-94
2023/11/14 10:51:19;;;;;;;33.97;30.27;;;12.20;86.10;;;;;;5056670;28;20193;-94
2023/11/14 10:53:47;;;;;;;36.33;30.00;;;12.00;86.30;;;;;;5057400;28;20172;-93
2023/11/14 10:56:19;;;;;;;33.87;30.80;;;11.90;86.40;;;;;;5059269;28;20224;-92
2023/11/14 10:58:51;;;;;;;34.77;30.57;;;12.00;86.80;;;;;;5058137;28;20164;-93
2023/11/14 11:01:17;;;;;;;32.00;28.77;;;11.90;86.70;;;;;;5058522;28;20179;-93
2023/11/14 11:03:51;;;;;;;29.23;26.33;;;11.80;87.10;;;;;;5059247;28;20224;-93
2023/11/14 11:06:34;;;;;;;48.97;45.30;;;11.80;86.90;;;;;;5058557;28;20188;-94
2023/11/14 11:09:01;;;;;;;51.30;47.17;;;11.70;87.30;;;;;;5059070;28;20172;-93
2023/11/14 11:11:33;;;;;;;47.27;43.73;;;11.70;88.00;;;;;;5059880;28;20176;-94
2023/11/14 11:14:03;;;;;;;49.70;45.33;;;11.80;87.70;;;;;;5059803;28;20252;-93
2023/11/14 11:16:45;;;;;;;45.17;41.70;;;11.90;86.90;;;;;;5042809;28;20181;-92
2023/11/14 11:19:28;;;;;;;49.27;44.93;;;11.80;86.90;;;;;;5058411;28;20196;-95
2023/11/14 11:22:13;;;;;;;48.33;44.50;;;11.90;86.80;;;;;;5042631;28;20187;-89
2023/11/14 11:25:17;;;;;;;50.70;45.97;;;11.90;86.40;;;;;;5034745;28;20205;-91
2023/11/14 11:27:43;;;;;;;45.90;41.80;;;12.00;86.80;;;;;;5036284;28;20702;-88
2023/11/14 11:30:12;;;;;;;46.23;40.93;;;12.00;87.30;;;;;;5035899;28;20173;-89
2023/11/14 11:32:40;;;;;;;33.67;30.27;;;12.00;87.10;;;;;;5034729;28;20636;-89
2023/11/14 11:35:18;;;;;;;32.77;29.83;;;11.90;87.80;;;;;;5034757;28;20275;-89
2023/11/14 11:38:09;;;;;;;37.43;32.30;;;11.90;87.30;;;;;;5034657;28;20203;-88
2023/11/14 11:40:55;;;;;;;39.73;28.90;;;11.80;86.80;;;;;;5034574;28;20605;-88
2023/11/14 11:43:25;;;;;;;29.97;25.70;;;11.80;87.30;;;;;;5034160;28;20208;-88
2023/11/14 11:45:51;;;;;;;46.00;33.70;;;11.80;87.20;;;;;;5034337;28;20231;-88
2023/11/14 11:48:32;;;;;;;35.23;31.53;;;12.00;86.50;;;;;;5035517;28;20200;-89
2023/11/14 11:51:19;;;;;;;36.10;27.23;;;12.30;85.60;;;;;;5034234;28;20173;-89
2023/11/14 11:53:45;;;;;;;31.90;25.07;;;12.20;85.40;;;;;;5034243;28;20180;-89
2023/11/14 11:56:11;;;;;;;28.60;25.37;;;12.20;84.70;;;;;;5035248;28;20197;-89
2023/11/14 11:58:47;;;;;;;34.20;26.97;;;12.20;84.70;;;;;;5035144;28;20180;-89
2023/11/14 12:01:14;;;;;;;30.40;27.20;;;12.20;84.90;;;;;;5035191;28;20180;-90
2023/11/14 12:03:40;;;;;;;27.67;25.17;;;12.20;85.30;;;;;;5033977;28;20212;-89
2023/11/14 12:06:09;;;;;;;28.90;24.83;;;12.10;84.50;;;;;;5035182;28;20573;-89
2023/11/14 12:08:35;;;;;;;34.43;26.93;;;12.00;85.20;;;;;;5033908;28;20185;-89
2023/11/14 12:11:02;;;;;;;32.80;25.17;;;12.00;85.20;;;;;;5033955;28;20698;-89
2023/11/14 12:13:28;;;;;;;29.47;26.10;;;11.90;85.20;;;;;;5035071;28;20256;-90
2023/11/14 12:15:54;;;;;;;37.93;26.93;;;11.90;85.30;;;;;;5033695;28;20581;-90
2023/11/14 12:18:19;;;;;;;28.97;25.90;;;11.90;85.80;;;;;;5033886;28;20183;-88
2023/11/14 12:20:45;;;;;;;29.43;25.43;;;11.90;85.70;;;;;;5033856;28;20176;-88
2023/11/14 12:23:11;;;;;;;31.03;25.43;;;11.90;85.90;;;;;;5034542;28;20300;-89
2023/11/14 12:25:37;;;;;;;32.80;25.27;;;11.80;85.80;;;;;;5033421;28;20200;-87
2023/11/14 12:28:02;;;;;;;28.60;25.60;;;11.80;85.50;;;;;;5034731;28;20230;-88
2023/11/14 12:30:28;;;;;;;28.13;24.53;;;11.80;86.00;;;;;;5033858;28;19958;-88